createdAt,value
2023-05-04T00:01:26.453Z,1.50
2023-05-04T00:03:54.662Z,0.80
2023-05-04T00:06:21.882Z,1.00
2023-05-04T00:08:48.559Z,0.70
2023-05-04T00:11:15.252Z,0.90
2023-05-04T00:13:41.950Z,0.90
2023-05-04T00:16:10.876Z,0.60
2023-05-04T00:18:38.892Z,0.90
2023-05-04T00:21:06.561Z,0.50
2023-05-04T00:23:34.196Z,0.90
2023-05-04T00:26:01.303Z,0.70
2023-05-04T00:28:27.996Z,0.40
2023-05-04T00:30:55.200Z,1.20
2023-05-04T00:33:22.232Z,1.00
2023-05-04T00:35:48.911Z,0.60
2023-05-04T00:38:16.902Z,0.70
2023-05-04T00:40:43.618Z,0.60
2023-05-04T00:43:11.457Z,0.80
2023-05-04T00:45:38.380Z,0.70
2023-05-04T00:48:06.333Z,0.70
2023-05-04T00:50:33.178Z,0.60
2023-05-04T00:53:00.822Z,1.20
2023-05-04T00:55:27.527Z,0.70
2023-05-04T00:57:55.421Z,0.80
2023-05-04T01:00:22.588Z,0.60
2023-05-04T01:02:50.202Z,0.70
2023-05-04T01:05:16.986Z,0.70
2023-05-04T01:08:04.435Z,0.70
2023-05-04T01:10:43.643Z,0.80
2023-05-04T01:13:17.283Z,1.00
2023-05-04T01:15:44.132Z,0.80
2023-05-04T01:18:11.214Z,0.70
2023-05-04T01:20:38.045Z,0.60
2023-05-04T01:23:04.737Z,0.70
2023-05-04T01:25:35.983Z,0.70
2023-05-04T01:28:12.588Z,0.60
2023-05-04T01:30:41.095Z,0.70
2023-05-04T01:33:07.866Z,0.60
2023-05-04T01:35:36.399Z,0.70
2023-05-04T01:38:03.256Z,0.70
2023-05-04T01:40:29.960Z,0.60
2023-05-04T01:42:56.696Z,0.70
2023-05-04T01:45:23.477Z,0.60
2023-05-04T01:47:50.272Z,0.50
2023-05-04T01:50:17.179Z,0.50
2023-05-04T01:52:43.912Z,0.60
2023-05-04T01:55:11.174Z,0.60
2023-05-04T01:57:37.956Z,0.70
2023-05-04T02:00:05.396Z,0.60
2023-05-04T02:02:42.693Z,0.60
2023-05-04T02:05:09.726Z,0.50
2023-05-04T02:07:36.438Z,0.50
2023-05-04T02:10:04.151Z,0.50
2023-05-04T02:12:31.119Z,0.60
2023-05-04T02:14:58.646Z,0.70
2023-05-04T02:17:25.357Z,0.60
2023-05-04T02:19:52.166Z,0.70
2023-05-04T02:22:19.312Z,0.70
2023-05-04T02:24:46.105Z,0.70
2023-05-04T02:27:12.761Z,0.80
2023-05-04T02:29:39.437Z,0.70
2023-05-04T02:32:07.866Z,0.80
2023-05-04T02:34:35.473Z,0.80
2023-05-04T02:37:02.169Z,0.70
2023-05-04T02:39:28.817Z,0.70
2023-05-04T02:41:55.488Z,0.70
2023-05-04T02:44:22.175Z,0.70
2023-05-04T02:46:48.825Z,0.70
2023-05-04T02:49:15.530Z,0.60
2023-05-04T02:51:42.273Z,0.60
2023-05-04T02:54:08.936Z,0.60
2023-05-04T02:56:35.689Z,0.70
2023-05-04T02:59:02.452Z,0.70
2023-05-04T03:01:29.348Z,0.60
2023-05-04T03:03:56.097Z,0.70
2023-05-04T03:06:22.831Z,0.60
2023-05-04T03:08:49.480Z,0.60
2023-05-04T03:11:16.585Z,0.80
2023-05-04T03:13:43.554Z,0.70
2023-05-04T03:16:12.336Z,0.70
2023-05-04T03:18:39.176Z,0.70
2023-05-04T03:21:06.204Z,0.70
2023-05-04T03:23:33.331Z,0.60
2023-05-04T03:26:00.038Z,0.60
2023-05-04T03:28:26.950Z,0.70
2023-05-04T03:30:53.839Z,0.70
2023-05-04T03:33:20.927Z,0.70
2023-05-04T03:35:47.725Z,0.80
2023-05-04T03:38:14.404Z,0.70
2023-05-04T03:40:43.512Z,0.70
2023-05-04T03:43:11.419Z,0.70
2023-05-04T03:45:38.115Z,0.60
2023-05-04T03:48:05.445Z,0.60
2023-05-04T03:50:32.485Z,0.90
2023-05-04T03:52:59.124Z,0.80
2023-05-04T03:55:26.496Z,0.70
2023-05-04T03:57:53.309Z,0.70
2023-05-04T04:00:20.436Z,0.70
2023-05-04T04:02:52.271Z,0.70
2023-05-04T04:05:19.529Z,0.70
2023-05-04T04:07:46.999Z,0.70
2023-05-04T04:10:13.686Z,0.80
2023-05-04T04:12:40.406Z,0.80
2023-05-04T04:15:07.873Z,1.00
2023-05-04T04:17:34.602Z,0.80
2023-05-04T04:20:01.273Z,1.00
2023-05-04T04:22:27.910Z,0.90
2023-05-04T04:24:54.591Z,1.40
2023-05-04T04:27:21.379Z,1.10
2023-05-04T04:29:48.059Z,1.20
2023-05-04T04:32:15.784Z,1.40
2023-05-04T04:34:42.446Z,1.20
2023-05-04T04:37:09.176Z,1.20
2023-05-04T04:39:36.043Z,1.10
2023-05-04T04:42:02.778Z,1.00
2023-05-04T04:44:29.835Z,1.00
2023-05-04T04:46:56.732Z,1.20
2023-05-04T04:49:23.563Z,1.20
2023-05-04T04:51:50.536Z,1.30
2023-05-04T04:54:17.190Z,1.20
2023-05-04T04:56:45.014Z,1.30
2023-05-04T04:59:12.874Z,1.40
2023-05-04T05:01:40.017Z,1.70
2023-05-04T05:04:06.747Z,1.20
2023-05-04T05:06:33.658Z,1.80
2023-05-04T05:09:00.455Z,1.60
2023-05-04T05:11:27.122Z,1.40
2023-05-04T05:13:53.781Z,1.40
2023-05-04T05:16:20.549Z,1.80
2023-05-04T05:18:47.941Z,1.70
2023-05-04T05:21:14.610Z,1.60
2023-05-04T05:23:41.453Z,1.70
2023-05-04T05:26:08.124Z,1.80
2023-05-04T05:28:34.840Z,2.00
2023-05-04T05:31:01.638Z,1.80
2023-05-04T05:33:28.425Z,2.30
2023-05-04T05:35:55.112Z,2.50
2023-05-04T05:38:21.793Z,1.80
2023-05-04T05:40:49.378Z,1.90
2023-05-04T05:43:16.324Z,2.30
2023-05-04T05:45:43.222Z,2.00
2023-05-04T05:48:10.381Z,2.00
2023-05-04T05:50:37.243Z,2.20
2023-05-04T05:53:03.988Z,1.40
2023-05-04T05:55:30.647Z,2.80
2023-05-04T05:57:57.369Z,2.10
2023-05-04T06:00:24.745Z,2.00
2023-05-04T06:02:51.895Z,2.20
2023-05-04T06:05:18.785Z,2.80
2023-05-04T06:07:45.556Z,2.80
2023-05-04T06:10:12.252Z,2.50
2023-05-04T06:12:39.016Z,3.40
2023-05-04T06:15:06.681Z,2.30
2023-05-04T06:17:33.790Z,2.50
2023-05-04T06:20:00.603Z,2.30
2023-05-04T06:22:27.755Z,2.20
2023-05-04T06:24:59.014Z,2.10
2023-05-04T06:29:58.436Z,2.40
2023-05-04T06:32:25.181Z,2.30
2023-05-04T06:34:55.754Z,2.80
2023-05-04T06:37:22.706Z,3.20
2023-05-04T06:39:49.503Z,3.40
2023-05-04T06:42:16.249Z,2.90
2023-05-04T06:44:42.995Z,3.30
2023-05-04T06:47:09.749Z,2.30
2023-05-04T06:49:36.597Z,3.70
2023-05-04T06:52:03.283Z,3.30
2023-05-04T06:54:30.062Z,2.70
2023-05-04T06:56:56.838Z,2.40
2023-05-04T06:59:23.575Z,3.20
2023-05-04T07:01:50.261Z,3.40
2023-05-04T07:04:17.269Z,2.90
2023-05-04T07:06:44.123Z,2.70
2023-05-04T07:09:11.071Z,2.20
2023-05-04T07:11:37.834Z,3.00
2023-05-04T07:14:04.567Z,2.40
2023-05-04T07:16:33.109Z,3.30
2023-05-04T07:18:59.854Z,3.50
2023-05-04T07:21:28.914Z,3.60
2023-05-04T07:23:56.336Z,3.10
2023-05-04T07:26:23.232Z,3.10
2023-05-04T07:28:50.041Z,3.90
2023-05-04T07:31:16.777Z,3.00
2023-05-04T07:33:43.554Z,3.00
2023-05-04T07:36:10.499Z,3.20
2023-05-04T07:38:37.248Z,3.30
2023-05-04T07:41:04.200Z,3.30
2023-05-04T07:43:30.915Z,3.00
2023-05-04T07:45:57.735Z,2.50
2023-05-04T07:48:26.365Z,2.70
2023-05-04T07:50:53.950Z,2.20
2023-05-04T07:53:20.987Z,3.00
2023-05-04T07:55:48.406Z,2.80
2023-05-04T07:58:16.703Z,2.40
2023-05-04T08:00:43.575Z,2.60
2023-05-04T08:03:10.414Z,2.00
2023-05-04T08:05:37.240Z,1.80
2023-05-04T08:08:04.144Z,2.00
2023-05-04T08:10:30.990Z,1.70
2023-05-04T08:12:57.967Z,1.20
2023-05-04T08:15:24.689Z,2.20
2023-05-04T08:17:51.780Z,1.30
2023-05-04T08:20:18.615Z,1.70
2023-05-04T08:22:45.738Z,2.10
2023-05-04T08:25:12.697Z,1.70
2023-05-04T08:27:39.541Z,1.70
2023-05-04T08:30:07.207Z,1.90
2023-05-04T08:32:34.012Z,1.60
2023-05-04T08:35:00.993Z,1.60
2023-05-04T08:37:27.656Z,1.50
2023-05-04T08:39:54.438Z,1.60
2023-05-04T08:42:31.692Z,2.00
2023-05-04T08:44:58.705Z,1.30
2023-05-04T08:47:25.911Z,1.90
2023-05-04T08:49:54.286Z,1.30
2023-05-04T08:52:24.728Z,1.80
2023-05-04T08:54:55.781Z,1.20
2023-05-04T08:57:26.212Z,2.00
2023-05-04T08:59:54.561Z,2.10
2023-05-04T09:02:24.601Z,1.20
2023-05-04T09:04:52.842Z,1.50
2023-05-04T09:07:20.651Z,1.20
2023-05-04T09:09:48.483Z,0.90
2023-05-04T09:12:15.194Z,1.20
2023-05-04T09:14:41.844Z,0.90
2023-05-04T09:17:25.650Z,0.90
2023-05-04T09:20:00.213Z,1.00
2023-05-04T09:22:28.879Z,1.00
2023-05-04T09:25:12.655Z,1.10
2023-05-04T09:27:41.485Z,1.10
2023-05-04T09:30:09.204Z,1.20
2023-05-04T09:32:46.766Z,1.10
2023-05-04T09:35:25.309Z,1.00
2023-05-04T09:37:59.170Z,1.00
2023-05-04T09:40:36.658Z,1.30
2023-05-04T09:43:03.591Z,0.80
2023-05-04T09:45:40.287Z,0.90
2023-05-04T09:48:20.885Z,1.10
2023-05-04T09:50:49.680Z,1.00
2023-05-04T09:53:16.422Z,1.00
2023-05-04T09:55:43.246Z,1.00
2023-05-04T09:58:10.077Z,0.90
2023-05-04T10:00:36.753Z,1.00
2023-05-04T10:03:03.613Z,0.80
2023-05-04T10:05:30.377Z,0.90
2023-05-04T10:07:59.609Z,0.70
2023-05-04T10:10:27.162Z,0.50
2023-05-04T10:12:54.147Z,0.90
2023-05-04T10:15:20.884Z,0.60
2023-05-04T10:18:22.844Z,0.50
2023-05-04T10:21:02.011Z,0.60
2023-05-04T10:23:53.824Z,0.60
2023-05-04T10:26:24.175Z,0.50
2023-05-04T10:28:50.908Z,0.50
2023-05-04T10:31:18.291Z,0.40
2023-05-04T10:33:45.052Z,0.30
2023-05-04T10:36:11.748Z,0.40
2023-05-04T10:38:39.647Z,0.40
2023-05-04T10:41:16.696Z,0.40
2023-05-04T10:43:48.679Z,0.40
2023-05-04T10:46:22.790Z,0.40
2023-05-04T10:48:50.185Z,0.50
2023-05-04T10:51:21.027Z,0.60
2023-05-04T10:53:48.112Z,1.00
2023-05-04T10:56:25.292Z,0.50
2023-05-04T10:58:52.658Z,0.50
2023-05-04T11:01:19.801Z,0.50
2023-05-04T11:03:47.088Z,0.40
2023-05-04T11:06:23.929Z,0.40
2023-05-04T11:09:01.574Z,0.80
2023-05-04T11:11:28.266Z,0.50
2023-05-04T11:13:54.918Z,0.50
2023-05-04T11:16:25.707Z,0.50
2023-05-04T11:18:53.614Z,1.00
2023-05-04T11:21:26.950Z,0.50
2023-05-04T11:23:57.915Z,0.40
2023-05-04T11:26:24.925Z,0.40
2023-05-04T11:28:51.657Z,0.30
2023-05-04T11:31:19.482Z,0.40
2023-05-04T11:33:49.695Z,0.30
2023-05-04T11:36:16.640Z,0.30
2023-05-04T11:38:43.861Z,0.80
2023-05-04T11:41:10.788Z,0.40
2023-05-04T11:43:37.920Z,0.30
2023-05-04T11:46:04.730Z,0.30
2023-05-04T11:48:32.468Z,0.30
2023-05-04T11:50:59.189Z,0.30
2023-05-04T11:53:26.355Z,0.30
2023-05-04T11:55:57.390Z,0.30
2023-05-04T11:58:25.508Z,0.40
2023-05-04T12:00:56.981Z,0.40
2023-05-04T12:03:32.637Z,0.40
2023-05-04T12:06:07.366Z,0.40
2023-05-04T12:08:42.198Z,0.40
2023-05-04T12:11:26.154Z,0.30
2023-05-04T12:15:48.919Z,0.40
2023-05-04T12:18:23.156Z,0.40
2023-05-04T12:20:49.906Z,0.40
2023-05-04T12:23:16.580Z,0.40
2023-05-04T12:25:54.719Z,0.30
2023-05-04T12:28:31.378Z,0.50
2023-05-04T12:31:01.796Z,0.20
2023-05-04T12:33:28.869Z,0.30
2023-05-04T12:35:55.816Z,0.30
2023-05-04T12:38:22.572Z,0.30
2023-05-04T12:40:49.268Z,0.30
2023-05-04T12:43:16.016Z,0.20
2023-05-04T12:45:42.837Z,0.30
2023-05-04T12:48:09.494Z,0.30
2023-05-04T12:50:36.266Z,0.30
2023-05-04T12:53:04.337Z,0.30
2023-05-04T12:55:34.059Z,0.10
2023-05-04T12:58:00.779Z,0.30
2023-05-04T13:00:27.433Z,0.20
2023-05-04T13:02:54.393Z,0.20
2023-05-04T13:05:23.061Z,0.20
2023-05-04T13:07:49.767Z,0.20
2023-05-04T13:10:16.920Z,0.20
2023-05-04T13:12:46.086Z,0.20
2023-05-04T13:15:13.468Z,0.20
2023-05-04T13:17:40.416Z,0.20
2023-05-04T13:20:08.925Z,0.20
2023-05-04T13:22:35.869Z,0.20
2023-05-04T13:25:02.591Z,0.20
2023-05-04T13:27:29.567Z,0.10
2023-05-04T13:29:58.676Z,0.20
2023-05-04T13:32:27.595Z,0.10
2023-05-04T13:34:54.533Z,0.10
2023-05-04T13:37:21.227Z,0.20
2023-05-04T13:39:47.996Z,0.20
2023-05-04T13:42:14.799Z,0.20
2023-05-04T13:44:45.636Z,0.10
2023-05-04T13:47:16.616Z,0.10
2023-05-04T13:49:43.354Z,0.10
2023-05-04T13:52:10.045Z,0.40
2023-05-04T13:54:37.371Z,0.50
2023-05-04T13:57:04.541Z,0.60
2023-05-04T13:59:31.262Z,1.10
2023-05-04T14:01:57.903Z,0.90
2023-05-04T14:04:24.674Z,1.00
2023-05-04T14:06:51.746Z,1.20
2023-05-04T14:09:19.498Z,1.70
2023-05-04T14:11:47.563Z,1.80
2023-05-04T14:14:14.713Z,1.40
2023-05-04T14:16:41.952Z,1.80
2023-05-04T14:19:08.854Z,1.90
2023-05-04T14:21:35.997Z,1.30
2023-05-04T14:24:03.562Z,1.40
2023-05-04T14:26:31.758Z,2.90
2023-05-04T14:28:58.650Z,1.10
2023-05-04T14:31:25.368Z,1.30
2023-05-04T14:33:52.394Z,1.10
2023-05-04T14:36:20.018Z,1.30
2023-05-04T14:38:48.046Z,2.10
2023-05-04T14:41:15.326Z,1.20
2023-05-04T14:43:42.320Z,1.20
2023-05-04T14:46:09.738Z,1.80
2023-05-04T14:48:37.070Z,1.80
2023-05-04T14:51:03.910Z,1.30
2023-05-04T14:53:35.720Z,1.10
2023-05-04T14:56:03.812Z,1.50
2023-05-04T14:58:30.595Z,1.30
2023-05-04T15:00:57.473Z,1.20
2023-05-04T15:03:26.217Z,1.30
2023-05-04T15:05:53.038Z,1.00
2023-05-04T15:08:19.697Z,1.00
2023-05-04T15:10:46.501Z,1.50
2023-05-04T15:13:15.757Z,1.10
2023-05-04T15:15:43.044Z,1.20
2023-05-04T15:18:10.013Z,0.80
2023-05-04T15:20:38.529Z,0.90
2023-05-04T15:23:10.644Z,0.90
2023-05-04T15:25:41.146Z,0.90
2023-05-04T15:28:11.162Z,1.20
2023-05-04T15:30:38.828Z,1.20
2023-05-04T15:33:05.832Z,1.30
2023-05-04T15:35:36.142Z,1.00
2023-05-04T15:38:03.180Z,1.00
2023-05-04T15:40:29.959Z,0.80
2023-05-04T15:42:56.652Z,0.90
2023-05-04T15:45:23.435Z,0.90
2023-05-04T15:47:50.365Z,0.80
2023-05-04T15:50:17.223Z,0.80
2023-05-04T15:52:43.954Z,0.80
2023-05-04T15:55:24.431Z,0.80
2023-05-04T15:57:52.804Z,1.00
2023-05-04T16:00:20.997Z,0.90
2023-05-04T16:02:47.854Z,0.70
2023-05-04T16:05:14.798Z,1.00
2023-05-04T16:07:41.930Z,0.70
2023-05-04T16:10:12.346Z,0.80
2023-05-04T16:12:41.273Z,0.60
2023-05-04T16:15:11.098Z,1.30
2023-05-04T16:17:37.924Z,0.70
2023-05-04T16:20:05.455Z,0.80
2023-05-04T16:22:32.548Z,0.80
2023-05-04T16:24:59.198Z,0.70
2023-05-04T16:27:29.049Z,0.70
2023-05-04T16:29:56.190Z,0.80
2023-05-04T16:32:23.236Z,0.70
2023-05-04T16:34:49.963Z,0.70
2023-05-04T16:37:18.511Z,0.70
2023-05-04T16:39:45.706Z,0.70
2023-05-04T16:42:12.671Z,0.70
2023-05-04T16:44:39.591Z,0.60
2023-05-04T16:47:07.183Z,0.60
2023-05-04T16:49:34.012Z,0.70
2023-05-04T16:52:02.018Z,0.60
2023-05-04T16:54:28.754Z,0.70
2023-05-04T16:56:55.496Z,0.50
2023-05-04T16:59:22.422Z,0.60
2023-05-04T17:01:49.279Z,0.50
2023-05-04T17:04:16.346Z,0.60
2023-05-04T17:06:43.159Z,0.50
2023-05-04T17:09:09.949Z,0.50
2023-05-04T17:11:36.717Z,0.40
2023-05-04T17:14:03.703Z,0.50
2023-05-04T17:16:30.651Z,0.50
2023-05-04T17:18:57.407Z,0.50
2023-05-04T17:21:24.090Z,0.40
2023-05-04T17:23:51.212Z,0.50
2023-05-04T17:26:18.678Z,0.60
2023-05-04T17:28:45.662Z,0.60
2023-05-04T17:31:12.614Z,0.60
2023-05-04T17:33:39.437Z,0.40
2023-05-04T17:36:07.846Z,0.50
2023-05-04T17:38:34.592Z,0.50
2023-05-04T17:41:01.379Z,0.50
2023-05-04T17:43:28.168Z,0.40
2023-05-04T17:45:55.915Z,0.30
2023-05-04T17:48:24.227Z,0.40
2023-05-04T17:50:51.432Z,0.40
2023-05-04T17:53:18.169Z,0.40
2023-05-04T17:55:44.987Z,0.60
2023-05-04T17:58:11.716Z,0.40
2023-05-04T18:00:38.378Z,0.40
2023-05-04T18:03:05.335Z,0.70
2023-05-04T18:05:32.171Z,0.40
2023-05-04T18:07:59.155Z,0.40
2023-05-04T18:10:26.176Z,0.50
2023-05-04T18:12:52.975Z,0.30
2023-05-04T18:15:19.839Z,0.30
2023-05-04T18:17:46.619Z,0.40
2023-05-04T18:20:13.587Z,0.40
2023-05-04T18:22:41.175Z,0.40
2023-05-04T18:25:08.500Z,0.50
2023-05-04T18:27:35.454Z,0.40
2023-05-04T18:30:03.452Z,0.40
2023-05-04T18:32:30.124Z,0.50
2023-05-04T18:34:58.070Z,0.40
2023-05-04T18:37:24.979Z,0.50
2023-05-04T18:39:51.720Z,0.40
2023-05-04T18:42:18.405Z,0.40
2023-05-04T18:44:45.029Z,0.40
2023-05-04T18:47:11.996Z,0.50
2023-05-04T18:49:38.736Z,0.50
2023-05-04T18:52:05.674Z,0.40
2023-05-04T18:54:32.863Z,0.50
2023-05-04T18:56:59.513Z,0.60
2023-05-04T18:59:26.215Z,0.50
2023-05-04T19:01:55.627Z,0.60
2023-05-04T19:04:22.281Z,0.40
2023-05-04T19:06:51.781Z,0.50
2023-05-04T19:09:18.881Z,0.50
2023-05-04T19:11:46.824Z,0.30
2023-05-04T19:14:13.701Z,0.40
2023-05-04T19:16:40.710Z,0.40
2023-05-04T19:19:07.610Z,0.50
2023-05-04T19:21:34.302Z,0.50
2023-05-04T19:24:00.997Z,0.40
2023-05-04T19:26:27.684Z,0.50
2023-05-04T19:28:54.354Z,0.60
2023-05-04T19:31:21.206Z,0.40
2023-05-04T19:33:49.599Z,0.60
2023-05-04T19:36:17.131Z,0.60
2023-05-04T19:38:44.120Z,0.50
2023-05-04T19:41:11.229Z,0.50
2023-05-04T19:43:39.037Z,0.50
2023-05-04T19:46:06.164Z,0.70
2023-05-04T19:48:32.990Z,0.40
2023-05-04T19:50:59.752Z,0.50
2023-05-04T19:53:26.774Z,0.50
2023-05-04T19:55:53.665Z,0.60
2023-05-04T19:58:21.910Z,0.50
2023-05-04T20:00:48.936Z,0.50
2023-05-04T20:03:17.055Z,0.50
2023-05-04T20:05:43.880Z,0.40
2023-05-04T20:08:10.814Z,0.50
2023-05-04T20:10:37.522Z,0.50
2023-05-04T20:13:05.596Z,0.40
2023-05-04T20:15:32.385Z,0.50
2023-05-04T20:17:59.315Z,0.50
2023-05-04T20:20:26.776Z,0.40
2023-05-04T20:22:53.627Z,0.40
2023-05-04T20:25:20.308Z,0.40
2023-05-04T20:27:48.701Z,0.40
2023-05-04T20:30:15.668Z,0.40
2023-05-04T20:32:44.041Z,0.40
2023-05-04T20:35:10.975Z,0.40
2023-05-04T20:37:37.646Z,0.40
2023-05-04T20:40:05.099Z,0.50
2023-05-04T20:42:32.926Z,0.40
2023-05-04T20:44:59.595Z,0.40
2023-05-04T20:47:26.702Z,0.40
2023-05-04T20:49:53.377Z,0.40
2023-05-04T20:52:20.188Z,0.50
2023-05-04T20:54:46.843Z,0.40
2023-05-04T20:57:13.533Z,0.50
2023-05-04T20:59:40.503Z,0.40
2023-05-04T21:02:08.074Z,0.60
2023-05-04T21:04:34.749Z,0.50
2023-05-04T21:07:01.423Z,0.40
2023-05-04T21:09:28.214Z,0.40
2023-05-04T21:11:55.068Z,0.40
2023-05-04T21:14:21.875Z,0.40
2023-05-04T21:16:48.562Z,0.40
2023-05-04T21:19:15.398Z,0.40
2023-05-04T21:21:42.969Z,0.30
2023-05-04T21:24:12.277Z,0.40
2023-05-04T21:26:39.285Z,0.40
2023-05-04T21:29:05.965Z,0.30
2023-05-04T21:31:34.746Z,0.30
2023-05-04T21:34:02.137Z,0.30
2023-05-04T21:36:29.355Z,0.40
2023-05-04T21:38:56.215Z,0.30
2023-05-04T21:41:22.862Z,0.30
2023-05-04T21:43:49.587Z,0.30
2023-05-04T21:46:16.364Z,0.30
2023-05-04T21:48:43.152Z,0.30
2023-05-04T21:51:10.383Z,0.40
2023-05-04T21:53:37.116Z,0.30
2023-05-04T21:56:08.392Z,0.30
2023-05-04T21:58:43.384Z,0.40
2023-05-04T22:01:14.844Z,0.30
2023-05-04T22:03:41.581Z,0.40
2023-05-04T22:06:08.554Z,0.40
2023-05-04T22:08:35.476Z,0.30
2023-05-04T22:11:02.189Z,0.40
2023-05-04T22:13:28.873Z,0.30
2023-05-04T22:15:55.733Z,0.20
2023-05-04T22:18:22.698Z,0.30
2023-05-04T22:20:49.446Z,0.30
2023-05-04T22:23:16.178Z,0.40
2023-05-04T22:25:43.050Z,0.40
2023-05-04T22:28:09.708Z,0.40
2023-05-04T22:30:36.373Z,0.60
2023-05-04T22:33:03.345Z,0.50
2023-05-04T22:35:31.707Z,0.70
2023-05-04T22:37:58.480Z,0.50
2023-05-04T22:40:25.360Z,0.40
2023-05-04T22:42:52.202Z,0.50
2023-05-04T22:45:18.976Z,0.40
2023-05-04T22:47:47.010Z,0.50
2023-05-04T22:50:14.297Z,0.30
2023-05-04T22:52:41.272Z,0.40
2023-05-04T22:55:08.802Z,0.30
2023-05-04T22:57:35.791Z,0.40
2023-05-04T23:00:04.403Z,0.50
2023-05-04T23:02:31.276Z,0.40
2023-05-04T23:04:58.034Z,0.30
2023-05-04T23:07:24.677Z,0.30
2023-05-04T23:09:51.368Z,0.40
2023-05-04T23:12:18.086Z,0.50
2023-05-04T23:14:44.771Z,0.40
2023-05-04T23:17:11.499Z,0.30
2023-05-04T23:19:38.095Z,0.40
2023-05-04T23:22:04.715Z,0.40
2023-05-04T23:24:31.379Z,0.30
2023-05-04T23:26:58.989Z,0.40
2023-05-04T23:29:25.784Z,0.40
2023-05-04T23:31:53.607Z,0.40
2023-05-04T23:34:20.363Z,0.40
2023-05-04T23:36:46.986Z,0.40
2023-05-04T23:39:13.619Z,0.30
2023-05-04T23:41:40.265Z,0.40
2023-05-04T23:44:07.075Z,0.40
2023-05-04T23:46:33.752Z,0.30
2023-05-04T23:49:00.502Z,0.30
2023-05-04T23:51:28.542Z,0.30
2023-05-04T23:53:55.883Z,0.50
2023-05-04T23:56:22.658Z,0.30
2023-05-04T23:58:49.506Z,0.40
